sensor_id;sensor_type;location;lat;lon;timestamp;P1;durP1;ratioP1;P2;durP2;ratioP2
71351;SDS011;59159;51.652;4.864;2023-04-26T00:01:54;5.03;;;1.00;;
71351;SDS011;59159;51.652;4.864;2023-04-26T00:04:21;4.73;;;1.10;;
71351;SDS011;59159;51.652;4.864;2023-04-26T00:06:47;4.97;;;1.30;;
71351;SDS011;59159;51.652;4.864;2023-04-26T00:09:13;4.13;;;1.10;;
71351;SDS011;59159;51.652;4.864;2023-04-26T00:11:39;4.53;;;1.30;;
71351;SDS011;59159;51.652;4.864;2023-04-26T00:14:06;4.88;;;1.10;;
71351;SDS011;59159;51.652;4.864;2023-04-26T00:16:32;4.15;;;1.08;;
71351;SDS011;59159;51.652;4.864;2023-04-26T00:18:58;4.82;;;1.20;;
71351;SDS011;59159;51.652;4.864;2023-04-26T00:21:24;3.63;;;0.97;;
71351;SDS011;59159;51.652;4.864;2023-04-26T00:23:50;3.53;;;1.08;;
71351;SDS011;59159;51.652;4.864;2023-04-26T00:26:16;5.13;;;1.25;;
71351;SDS011;59159;51.652;4.864;2023-04-26T00:28:42;4.70;;;1.20;;
71351;SDS011;59159;51.652;4.864;2023-04-26T00:31:12;3.33;;;1.00;;
71351;SDS011;59159;51.652;4.864;2023-04-26T00:33:38;4.07;;;1.20;;
71351;SDS011;59159;51.652;4.864;2023-04-26T00:36:04;4.50;;;1.10;;
71351;SDS011;59159;51.652;4.864;2023-04-26T00:38:31;4.55;;;1.35;;
71351;SDS011;59159;51.652;4.864;2023-04-26T00:40:56;5.57;;;1.17;;
71351;SDS011;59159;51.652;4.864;2023-04-26T00:43:22;5.38;;;1.52;;
71351;SDS011;59159;51.652;4.864;2023-04-26T00:45:49;2.90;;;0.80;;
71351;SDS011;59159;51.652;4.864;2023-04-26T00:48:16;4.22;;;1.10;;
71351;SDS011;59159;51.652;4.864;2023-04-26T00:50:42;4.78;;;1.30;;
71351;SDS011;59159;51.652;4.864;2023-04-26T00:53:09;5.27;;;1.40;;
71351;SDS011;59159;51.652;4.864;2023-04-26T00:55:38;4.88;;;1.10;;
71351;SDS011;59159;51.652;4.864;2023-04-26T00:58:05;4.18;;;1.08;;
71351;SDS011;59159;51.652;4.864;2023-04-26T01:00:31;4.27;;;1.30;;
71351;SDS011;59159;51.652;4.864;2023-04-26T01:02:58;4.57;;;1.30;;
71351;SDS011;59159;51.652;4.864;2023-04-26T01:05:24;4.20;;;1.20;;
71351;SDS011;59159;51.652;4.864;2023-04-26T01:07:50;5.97;;;1.20;;
71351;SDS011;59159;51.652;4.864;2023-04-26T01:10:16;4.63;;;1.60;;
71351;SDS011;59159;51.652;4.864;2023-04-26T01:12:42;5.22;;;1.38;;
71351;SDS011;59159;51.652;4.864;2023-04-26T01:15:09;3.97;;;1.23;;
71351;SDS011;59159;51.652;4.864;2023-04-26T01:17:36;4.63;;;1.20;;
71351;SDS011;59159;51.652;4.864;2023-04-26T01:20:02;4.85;;;1.20;;
71351;SDS011;59159;51.652;4.864;2023-04-26T01:22:32;3.75;;;1.10;;
71351;SDS011;59159;51.652;4.864;2023-04-26T01:24:58;3.60;;;1.30;;
71351;SDS011;59159;51.652;4.864;2023-04-26T01:27:24;4.28;;;1.33;;
71351;SDS011;59159;51.652;4.864;2023-04-26T01:29:50;4.68;;;1.15;;
71351;SDS011;59159;51.652;4.864;2023-04-26T01:32:16;5.10;;;1.35;;
71351;SDS011;59159;51.652;4.864;2023-04-26T01:34:42;4.03;;;1.10;;
71351;SDS011;59159;51.652;4.864;2023-04-26T01:37:08;4.43;;;1.25;;
71351;SDS011;59159;51.652;4.864;2023-04-26T01:39:35;4.50;;;1.48;;
71351;SDS011;59159;51.652;4.864;2023-04-26T01:42:01;5.27;;;1.37;;
71351;SDS011;59159;51.652;4.864;2023-04-26T01:44:28;5.03;;;1.65;;
71351;SDS011;59159;51.652;4.864;2023-04-26T01:46:54;4.32;;;1.40;;
71351;SDS011;59159;51.652;4.864;2023-04-26T01:49:20;5.53;;;1.30;;
71351;SDS011;59159;51.652;4.864;2023-04-26T01:51:46;6.63;;;1.67;;
71351;SDS011;59159;51.652;4.864;2023-04-26T01:54:12;5.32;;;1.48;;
71351;SDS011;59159;51.652;4.864;2023-04-26T01:56:38;4.10;;;1.40;;
71351;SDS011;59159;51.652;4.864;2023-04-26T01:59:05;3.87;;;1.03;;
71351;SDS011;59159;51.652;4.864;2023-04-26T02:01:31;4.97;;;1.20;;
71351;SDS011;59159;51.652;4.864;2023-04-26T02:03:57;5.32;;;1.50;;
71351;SDS011;59159;51.652;4.864;2023-04-26T02:06:23;4.60;;;1.17;;
71351;SDS011;59159;51.652;4.864;2023-04-26T02:08:49;4.53;;;1.15;;
71351;SDS011;59159;51.652;4.864;2023-04-26T02:11:15;4.47;;;1.30;;
71351;SDS011;59159;51.652;4.864;2023-04-26T02:13:41;6.43;;;1.57;;
71351;SDS011;59159;51.652;4.864;2023-04-26T02:16:07;5.15;;;1.45;;
71351;SDS011;59159;51.652;4.864;2023-04-26T02:18:33;6.18;;;1.63;;
71351;SDS011;59159;51.652;4.864;2023-04-26T02:20:59;4.07;;;1.40;;
71351;SDS011;59159;51.652;4.864;2023-04-26T02:23:25;5.33;;;1.50;;
71351;SDS011;59159;51.652;4.864;2023-04-26T02:25:51;5.25;;;1.42;;
71351;SDS011;59159;51.652;4.864;2023-04-26T02:28:17;4.53;;;1.65;;
71351;SDS011;59159;51.652;4.864;2023-04-26T02:30:43;4.27;;;1.10;;
71351;SDS011;59159;51.652;4.864;2023-04-26T02:33:09;4.25;;;1.20;;
71351;SDS011;59159;51.652;4.864;2023-04-26T02:35:35;5.07;;;1.38;;
71351;SDS011;59159;51.652;4.864;2023-04-26T02:38:01;4.73;;;1.37;;
71351;SDS011;59159;51.652;4.864;2023-04-26T02:40:28;5.70;;;1.45;;
71351;SDS011;59159;51.652;4.864;2023-04-26T02:42:54;4.88;;;1.30;;
71351;SDS011;59159;51.652;4.864;2023-04-26T02:45:20;5.03;;;1.20;;
71351;SDS011;59159;51.652;4.864;2023-04-26T02:47:46;3.80;;;1.30;;
71351;SDS011;59159;51.652;4.864;2023-04-26T02:50:12;4.70;;;1.30;;
71351;SDS011;59159;51.652;4.864;2023-04-26T02:52:38;6.35;;;1.42;;
71351;SDS011;59159;51.652;4.864;2023-04-26T02:55:05;4.40;;;1.30;;
71351;SDS011;59159;51.652;4.864;2023-04-26T02:57:31;6.00;;;1.20;;
71351;SDS011;59159;51.652;4.864;2023-04-26T02:59:57;4.32;;;1.50;;
71351;SDS011;59159;51.652;4.864;2023-04-26T03:02:23;4.83;;;1.13;;
71351;SDS011;59159;51.652;4.864;2023-04-26T03:04:49;5.03;;;1.60;;
71351;SDS011;59159;51.652;4.864;2023-04-26T03:07:16;5.53;;;1.40;;
71351;SDS011;59159;51.652;4.864;2023-04-26T03:09:42;4.55;;;1.45;;
71351;SDS011;59159;51.652;4.864;2023-04-26T03:12:08;5.07;;;1.53;;
71351;SDS011;59159;51.652;4.864;2023-04-26T03:14:34;5.95;;;1.63;;
71351;SDS011;59159;51.652;4.864;2023-04-26T03:17:01;6.10;;;1.70;;
71351;SDS011;59159;51.652;4.864;2023-04-26T03:19:27;5.20;;;1.50;;
71351;SDS011;59159;51.652;4.864;2023-04-26T03:21:54;6.78;;;1.55;;
71351;SDS011;59159;51.652;4.864;2023-04-26T03:24:20;5.43;;;1.70;;
71351;SDS011;59159;51.652;4.864;2023-04-26T03:26:46;5.27;;;1.60;;
71351;SDS011;59159;51.652;4.864;2023-04-26T03:29:12;5.22;;;1.38;;
71351;SDS011;59159;51.652;4.864;2023-04-26T03:31:38;5.20;;;1.27;;
71351;SDS011;59159;51.652;4.864;2023-04-26T03:34:04;5.90;;;1.80;;
71351;SDS011;59159;51.652;4.864;2023-04-26T03:36:31;4.40;;;1.40;;
71351;SDS011;59159;51.652;4.864;2023-04-26T03:38:58;5.32;;;1.50;;
71351;SDS011;59159;51.652;4.864;2023-04-26T03:41:24;4.90;;;1.40;;
71351;SDS011;59159;51.652;4.864;2023-04-26T03:43:50;4.47;;;1.20;;
71351;SDS011;59159;51.652;4.864;2023-04-26T03:46:16;5.13;;;1.58;;
71351;SDS011;59159;51.652;4.864;2023-04-26T03:48:42;5.80;;;1.50;;
71351;SDS011;59159;51.652;4.864;2023-04-26T03:51:08;5.33;;;1.43;;
71351;SDS011;59159;51.652;4.864;2023-04-26T03:53:34;4.80;;;1.98;;
71351;SDS011;59159;51.652;4.864;2023-04-26T03:56:00;4.43;;;1.55;;
71351;SDS011;59159;51.652;4.864;2023-04-26T03:58:27;5.25;;;1.77;;
71351;SDS011;59159;51.652;4.864;2023-04-26T04:00:57;5.20;;;1.60;;
71351;SDS011;59159;51.652;4.864;2023-04-26T04:03:24;5.85;;;1.55;;
71351;SDS011;59159;51.652;4.864;2023-04-26T04:05:50;4.57;;;1.38;;
71351;SDS011;59159;51.652;4.864;2023-04-26T04:08:16;6.17;;;1.63;;
71351;SDS011;59159;51.652;4.864;2023-04-26T04:10:42;5.32;;;1.60;;
71351;SDS011;59159;51.652;4.864;2023-04-26T04:13:08;4.78;;;1.40;;
71351;SDS011;59159;51.652;4.864;2023-04-26T04:15:34;4.67;;;1.70;;
71351;SDS011;59159;51.652;4.864;2023-04-26T04:18:00;6.47;;;2.08;;
71351;SDS011;59159;51.652;4.864;2023-04-26T04:20:27;6.90;;;1.70;;
71351;SDS011;59159;51.652;4.864;2023-04-26T04:22:53;5.97;;;1.83;;
71351;SDS011;59159;51.652;4.864;2023-04-26T04:25:19;6.00;;;1.70;;
71351;SDS011;59159;51.652;4.864;2023-04-26T04:27:46;5.20;;;1.73;;
71351;SDS011;59159;51.652;4.864;2023-04-26T04:30:13;4.65;;;1.40;;
71351;SDS011;59159;51.652;4.864;2023-04-26T04:32:39;5.47;;;1.57;;
71351;SDS011;59159;51.652;4.864;2023-04-26T04:35:08;4.85;;;1.75;;
71351;SDS011;59159;51.652;4.864;2023-04-26T04:37:34;6.05;;;1.83;;
71351;SDS011;59159;51.652;4.864;2023-04-26T04:40:00;5.33;;;1.70;;
71351;SDS011;59159;51.652;4.864;2023-04-26T04:42:26;4.75;;;1.50;;
71351;SDS011;59159;51.652;4.864;2023-04-26T04:44:53;4.72;;;1.40;;
71351;SDS011;59159;51.652;4.864;2023-04-26T04:47:19;5.93;;;2.00;;
71351;SDS011;59159;51.652;4.864;2023-04-26T04:49:45;5.00;;;1.70;;
71351;SDS011;59159;51.652;4.864;2023-04-26T04:52:11;5.30;;;1.73;;
71351;SDS011;59159;51.652;4.864;2023-04-26T04:54:37;4.68;;;1.77;;
71351;SDS011;59159;51.652;4.864;2023-04-26T04:57:04;7.30;;;2.33;;
71351;SDS011;59159;51.652;4.864;2023-04-26T04:59:30;7.40;;;2.22;;
71351;SDS011;59159;51.652;4.864;2023-04-26T05:01:57;6.97;;;2.83;;
71351;SDS011;59159;51.652;4.864;2023-04-26T05:04:23;8.43;;;3.50;;
71351;SDS011;59159;51.652;4.864;2023-04-26T05:06:49;7.82;;;2.75;;
71351;SDS011;59159;51.652;4.864;2023-04-26T05:09:16;9.30;;;2.88;;
71351;SDS011;59159;51.652;4.864;2023-04-26T05:11:42;7.32;;;2.50;;
71351;SDS011;59159;51.652;4.864;2023-04-26T05:14:08;8.50;;;2.47;;
71351;SDS011;59159;51.652;4.864;2023-04-26T05:16:34;7.10;;;2.25;;
71351;SDS011;59159;51.652;4.864;2023-04-26T05:19:00;6.70;;;2.33;;
71351;SDS011;59159;51.652;4.864;2023-04-26T05:21:26;8.30;;;2.40;;
71351;SDS011;59159;51.652;4.864;2023-04-26T05:23:52;6.80;;;2.40;;
71351;SDS011;59159;51.652;4.864;2023-04-26T05:26:18;6.00;;;2.50;;
71351;SDS011;59159;51.652;4.864;2023-04-26T05:28:44;5.90;;;2.17;;
71351;SDS011;59159;51.652;4.864;2023-04-26T05:31:10;5.68;;;2.10;;
71351;SDS011;59159;51.652;4.864;2023-04-26T05:33:36;5.32;;;1.77;;
71351;SDS011;59159;51.652;4.864;2023-04-26T05:36:02;6.13;;;1.83;;
71351;SDS011;59159;51.652;4.864;2023-04-26T05:38:28;7.87;;;1.90;;
71351;SDS011;59159;51.652;4.864;2023-04-26T05:40:54;7.63;;;2.00;;
71351;SDS011;59159;51.652;4.864;2023-04-26T05:43:20;7.20;;;1.98;;
71351;SDS011;59159;51.652;4.864;2023-04-26T05:45:52;6.43;;;1.93;;
71351;SDS011;59159;51.652;4.864;2023-04-26T05:48:19;5.53;;;1.90;;
71351;SDS011;59159;51.652;4.864;2023-04-26T05:50:46;6.53;;;1.70;;
71351;SDS011;59159;51.652;4.864;2023-04-26T05:53:12;5.03;;;1.60;;
71351;SDS011;59159;51.652;4.864;2023-04-26T05:55:39;7.00;;;2.17;;
71351;SDS011;59159;51.652;4.864;2023-04-26T05:58:06;6.18;;;1.55;;
71351;SDS011;59159;51.652;4.864;2023-04-26T06:00:32;6.47;;;1.70;;
71351;SDS011;59159;51.652;4.864;2023-04-26T06:02:58;6.07;;;1.50;;
71351;SDS011;59159;51.652;4.864;2023-04-26T06:05:24;4.40;;;1.50;;
71351;SDS011;59159;51.652;4.864;2023-04-26T06:07:50;5.93;;;1.70;;
71351;SDS011;59159;51.652;4.864;2023-04-26T06:10:16;6.63;;;1.40;;
71351;SDS011;59159;51.652;4.864;2023-04-26T06:12:42;7.63;;;2.00;;
71351;SDS011;59159;51.652;4.864;2023-04-26T06:15:09;4.90;;;1.52;;
71351;SDS011;59159;51.652;4.864;2023-04-26T06:17:35;4.90;;;1.80;;
71351;SDS011;59159;51.652;4.864;2023-04-26T06:20:01;6.22;;;1.80;;
71351;SDS011;59159;51.652;4.864;2023-04-26T06:22:27;5.35;;;1.35;;
71351;SDS011;59159;51.652;4.864;2023-04-26T06:24:53;5.97;;;1.33;;
71351;SDS011;59159;51.652;4.864;2023-04-26T06:27:19;5.10;;;1.50;;
71351;SDS011;59159;51.652;4.864;2023-04-26T06:29:45;8.40;;;2.15;;
71351;SDS011;59159;51.652;4.864;2023-04-26T06:32:11;5.30;;;1.40;;
71351;SDS011;59159;51.652;4.864;2023-04-26T06:34:37;4.97;;;1.30;;
71351;SDS011;59159;51.652;4.864;2023-04-26T06:37:04;5.95;;;1.60;;
71351;SDS011;59159;51.652;4.864;2023-04-26T06:39:30;4.90;;;1.20;;
71351;SDS011;59159;51.652;4.864;2023-04-26T06:41:56;5.37;;;1.50;;
71351;SDS011;59159;51.652;4.864;2023-04-26T06:44:22;6.57;;;1.40;;
71351;SDS011;59159;51.652;4.864;2023-04-26T06:46:48;4.75;;;1.50;;
71351;SDS011;59159;51.652;4.864;2023-04-26T06:49:14;4.60;;;1.45;;
71351;SDS011;59159;51.652;4.864;2023-04-26T06:51:40;5.30;;;1.60;;
71351;SDS011;59159;51.652;4.864;2023-04-26T06:54:06;5.15;;;1.70;;
71351;SDS011;59159;51.652;4.864;2023-04-26T06:56:32;4.60;;;1.38;;
71351;SDS011;59159;51.652;4.864;2023-04-26T06:59:02;6.20;;;1.60;;
71351;SDS011;59159;51.652;4.864;2023-04-26T07:01:29;5.50;;;1.40;;
71351;SDS011;59159;51.652;4.864;2023-04-26T07:03:57;4.63;;;1.50;;
71351;SDS011;59159;51.652;4.864;2023-04-26T07:06:25;4.80;;;1.37;;
71351;SDS011;59159;51.652;4.864;2023-04-26T07:08:51;6.05;;;1.20;;
71351;SDS011;59159;51.652;4.864;2023-04-26T07:11:17;4.25;;;1.20;;
71351;SDS011;59159;51.652;4.864;2023-04-26T07:13:44;4.38;;;1.40;;
71351;SDS011;59159;51.652;4.864;2023-04-26T07:16:10;5.63;;;1.77;;
71351;SDS011;59159;51.652;4.864;2023-04-26T07:18:37;5.80;;;1.20;;
71351;SDS011;59159;51.652;4.864;2023-04-26T07:21:04;5.93;;;1.52;;
71351;SDS011;59159;51.652;4.864;2023-04-26T07:23:29;5.30;;;1.30;;
71351;SDS011;59159;51.652;4.864;2023-04-26T07:25:55;6.50;;;1.92;;
71351;SDS011;59159;51.652;4.864;2023-04-26T07:28:21;5.05;;;1.40;;
71351;SDS011;59159;51.652;4.864;2023-04-26T07:30:47;4.77;;;1.13;;
71351;SDS011;59159;51.652;4.864;2023-04-26T07:33:14;4.80;;;1.08;;
71351;SDS011;59159;51.652;4.864;2023-04-26T07:35:41;4.85;;;1.27;;
71351;SDS011;59159;51.652;4.864;2023-04-26T07:38:07;4.90;;;1.50;;
71351;SDS011;59159;51.652;4.864;2023-04-26T07:40:34;5.13;;;1.30;;
71351;SDS011;59159;51.652;4.864;2023-04-26T07:43:00;3.88;;;1.30;;
71351;SDS011;59159;51.652;4.864;2023-04-26T07:45:26;3.75;;;1.10;;
71351;SDS011;59159;51.652;4.864;2023-04-26T07:47:52;4.87;;;1.30;;
71351;SDS011;59159;51.652;4.864;2023-04-26T07:50:18;5.47;;;1.40;;
71351;SDS011;59159;51.652;4.864;2023-04-26T07:52:44;6.60;;;1.35;;
71351;SDS011;59159;51.652;4.864;2023-04-26T07:55:11;6.13;;;1.20;;
71351;SDS011;59159;51.652;4.864;2023-04-26T07:57:37;4.40;;;1.17;;
71351;SDS011;59159;51.652;4.864;2023-04-26T08:00:06;3.28;;;1.05;;
71351;SDS011;59159;51.652;4.864;2023-04-26T08:02:34;5.70;;;1.13;;
71351;SDS011;59159;51.652;4.864;2023-04-26T08:05:00;5.10;;;1.03;;
71351;SDS011;59159;51.652;4.864;2023-04-26T08:07:26;4.80;;;1.10;;
71351;SDS011;59159;51.652;4.864;2023-04-26T08:09:53;4.18;;;1.55;;
71351;SDS011;59159;51.652;4.864;2023-04-26T08:12:19;4.20;;;1.10;;
71351;SDS011;59159;51.652;4.864;2023-04-26T08:14:45;4.18;;;1.10;;
71351;SDS011;59159;51.652;4.864;2023-04-26T08:17:11;3.95;;;1.05;;
71351;SDS011;59159;51.652;4.864;2023-04-26T08:19:37;4.33;;;1.07;;
71351;SDS011;59159;51.652;4.864;2023-04-26T08:22:03;4.25;;;1.17;;
71351;SDS011;59159;51.652;4.864;2023-04-26T08:24:30;4.80;;;1.40;;
71351;SDS011;59159;51.652;4.864;2023-04-26T08:26:56;5.80;;;1.50;;
71351;SDS011;59159;51.652;4.864;2023-04-26T08:29:23;4.33;;;1.20;;
71351;SDS011;59159;51.652;4.864;2023-04-26T08:31:49;3.13;;;1.02;;
71351;SDS011;59159;51.652;4.864;2023-04-26T08:34:15;3.97;;;1.02;;
71351;SDS011;59159;51.652;4.864;2023-04-26T08:36:41;5.33;;;1.10;;
71351;SDS011;59159;51.652;4.864;2023-04-26T08:39:07;4.15;;;1.20;;
71351;SDS011;59159;51.652;4.864;2023-04-26T08:41:44;5.05;;;1.20;;
71351;SDS011;59159;51.652;4.864;2023-04-26T08:44:10;3.97;;;1.20;;
71351;SDS011;59159;51.652;4.864;2023-04-26T08:46:43;3.80;;;1.10;;
71351;SDS011;59159;51.652;4.864;2023-04-26T08:51:50;4.82;;;1.17;;
71351;SDS011;59159;51.652;4.864;2023-04-26T08:54:17;3.33;;;1.27;;
71351;SDS011;59159;51.652;4.864;2023-04-26T08:56:44;4.45;;;1.38;;
71351;SDS011;59159;51.652;4.864;2023-04-26T08:59:11;2.88;;;0.77;;
71351;SDS011;59159;51.652;4.864;2023-04-26T09:01:38;4.93;;;1.20;;
71351;SDS011;59159;51.652;4.864;2023-04-26T09:04:05;4.15;;;1.35;;
71351;SDS011;59159;51.652;4.864;2023-04-26T09:06:32;3.65;;;1.00;;
71351;SDS011;59159;51.652;4.864;2023-04-26T09:08:58;3.80;;;1.20;;
71351;SDS011;59159;51.652;4.864;2023-04-26T09:11:29;4.30;;;0.98;;
71351;SDS011;59159;51.652;4.864;2023-04-26T09:13:55;4.35;;;0.95;;
71351;SDS011;59159;51.652;4.864;2023-04-26T09:16:34;3.17;;;0.82;;
71351;SDS011;59159;51.652;4.864;2023-04-26T09:19:00;3.23;;;0.90;;
71351;SDS011;59159;51.652;4.864;2023-04-26T09:21:26;3.88;;;1.02;;
71351;SDS011;59159;51.652;4.864;2023-04-26T09:23:55;3.58;;;0.90;;
71351;SDS011;59159;51.652;4.864;2023-04-26T09:26:21;2.73;;;0.80;;
71351;SDS011;59159;51.652;4.864;2023-04-26T09:28:47;3.88;;;1.20;;
71351;SDS011;59159;51.652;4.864;2023-04-26T09:31:36;3.35;;;1.00;;
71351;SDS011;59159;51.652;4.864;2023-04-26T09:34:01;2.50;;;0.90;;
71351;SDS011;59159;51.652;4.864;2023-04-26T09:36:27;4.55;;;0.98;;
71351;SDS011;59159;51.652;4.864;2023-04-26T09:38:53;3.90;;;0.93;;
71351;SDS011;59159;51.652;4.864;2023-04-26T09:41:20;4.28;;;1.40;;
71351;SDS011;59159;51.652;4.864;2023-04-26T09:43:47;4.13;;;1.07;;
71351;SDS011;59159;51.652;4.864;2023-04-26T09:46:19;3.25;;;1.00;;
71351;SDS011;59159;51.652;4.864;2023-04-26T09:48:48;4.63;;;0.98;;
71351;SDS011;59159;51.652;4.864;2023-04-26T09:51:25;4.87;;;1.00;;
71351;SDS011;59159;51.652;4.864;2023-04-26T09:53:52;2.70;;;0.70;;
71351;SDS011;59159;51.652;4.864;2023-04-26T09:56:19;3.00;;;0.90;;
71351;SDS011;59159;51.652;4.864;2023-04-26T10:01:13;4.22;;;0.80;;
71351;SDS011;59159;51.652;4.864;2023-04-26T10:03:39;5.38;;;1.35;;
71351;SDS011;59159;51.652;4.864;2023-04-26T10:06:06;5.18;;;1.00;;
71351;SDS011;59159;51.652;4.864;2023-04-26T10:08:32;3.57;;;0.80;;
71351;SDS011;59159;51.652;4.864;2023-04-26T10:10:59;4.45;;;0.93;;
71351;SDS011;59159;51.652;4.864;2023-04-26T10:13:28;3.47;;;0.90;;
71351;SDS011;59159;51.652;4.864;2023-04-26T10:15:57;5.07;;;1.10;;
71351;SDS011;59159;51.652;4.864;2023-04-26T10:18:23;3.70;;;0.80;;
71351;SDS011;59159;51.652;4.864;2023-04-26T10:20:50;4.50;;;0.90;;
71351;SDS011;59159;51.652;4.864;2023-04-26T10:23:20;4.63;;;1.10;;
71351;SDS011;59159;51.652;4.864;2023-04-26T10:25:47;3.83;;;0.90;;
71351;SDS011;59159;51.652;4.864;2023-04-26T10:28:13;4.10;;;1.20;;
71351;SDS011;59159;51.652;4.864;2023-04-26T10:33:38;4.57;;;1.17;;
71351;SDS011;59159;51.652;4.864;2023-04-26T10:38:31;4.95;;;1.30;;
71351;SDS011;59159;51.652;4.864;2023-04-26T10:43:42;6.25;;;1.50;;
71351;SDS011;59159;51.652;4.864;2023-04-26T10:48:52;5.67;;;1.70;;
71351;SDS011;59159;51.652;4.864;2023-04-26T10:51:20;6.72;;;1.23;;
71351;SDS011;59159;51.652;4.864;2023-04-26T10:58:48;5.50;;;2.00;;
71351;SDS011;59159;51.652;4.864;2023-04-26T11:01:15;4.75;;;1.73;;
71351;SDS011;59159;51.652;4.864;2023-04-26T11:06:46;6.33;;;1.87;;
71351;SDS011;59159;51.652;4.864;2023-04-26T11:11:57;5.85;;;1.55;;
71351;SDS011;59159;51.652;4.864;2023-04-26T11:14:23;7.43;;;1.60;;
71351;SDS011;59159;51.652;4.864;2023-04-26T11:16:50;5.55;;;1.70;;
71351;SDS011;59159;51.652;4.864;2023-04-26T11:19:15;6.15;;;1.65;;
71351;SDS011;59159;51.652;4.864;2023-04-26T11:21:41;5.63;;;1.40;;
71351;SDS011;59159;51.652;4.864;2023-04-26T11:24:08;7.27;;;1.80;;
71351;SDS011;59159;51.652;4.864;2023-04-26T11:26:34;6.03;;;1.52;;
71351;SDS011;59159;51.652;4.864;2023-04-26T11:29:00;6.18;;;1.60;;
71351;SDS011;59159;51.652;4.864;2023-04-26T11:31:28;6.40;;;1.80;;
71351;SDS011;59159;51.652;4.864;2023-04-26T11:33:59;5.10;;;1.40;;
71351;SDS011;59159;51.652;4.864;2023-04-26T11:36:26;5.50;;;1.60;;
71351;SDS011;59159;51.652;4.864;2023-04-26T11:38:52;5.13;;;1.30;;
71351;SDS011;59159;51.652;4.864;2023-04-26T11:41:18;4.20;;;1.13;;
71351;SDS011;59159;51.652;4.864;2023-04-26T11:43:48;4.70;;;1.63;;
71351;SDS011;59159;51.652;4.864;2023-04-26T11:46:14;4.57;;;1.20;;
71351;SDS011;59159;51.652;4.864;2023-04-26T11:48:40;6.63;;;1.43;;
71351;SDS011;59159;51.652;4.864;2023-04-26T11:51:07;6.07;;;1.50;;
71351;SDS011;59159;51.652;4.864;2023-04-26T11:53:42;5.15;;;1.60;;
71351;SDS011;59159;51.652;4.864;2023-04-26T11:56:15;4.03;;;1.13;;
71351;SDS011;59159;51.652;4.864;2023-04-26T11:58:48;4.13;;;1.08;;
71351;SDS011;59159;51.652;4.864;2023-04-26T12:01:23;3.28;;;1.00;;
71351;SDS011;59159;51.652;4.864;2023-04-26T12:03:50;5.83;;;1.33;;
71351;SDS011;59159;51.652;4.864;2023-04-26T12:06:16;8.30;;;1.17;;
71351;SDS011;59159;51.652;4.864;2023-04-26T12:08:48;4.90;;;1.10;;
71351;SDS011;59159;51.652;4.864;2023-04-26T12:11:15;4.70;;;1.27;;
71351;SDS011;59159;51.652;4.864;2023-04-26T12:13:41;3.80;;;1.20;;
71351;SDS011;59159;51.652;4.864;2023-04-26T12:16:08;3.53;;;1.15;;
71351;SDS011;59159;51.652;4.864;2023-04-26T12:18:34;4.60;;;1.30;;
71351;SDS011;59159;51.652;4.864;2023-04-26T12:21:00;5.30;;;1.20;;
71351;SDS011;59159;51.652;4.864;2023-04-26T12:23:26;3.00;;;0.70;;
71351;SDS011;59159;51.652;4.864;2023-04-26T12:25:53;3.47;;;0.90;;
71351;SDS011;59159;51.652;4.864;2023-04-26T12:28:19;3.57;;;1.10;;
71351;SDS011;59159;51.652;4.864;2023-04-26T12:30:46;3.63;;;1.05;;
71351;SDS011;59159;51.652;4.864;2023-04-26T12:33:12;3.33;;;0.95;;
71351;SDS011;59159;51.652;4.864;2023-04-26T12:35:38;3.63;;;1.05;;
71351;SDS011;59159;51.652;4.864;2023-04-26T12:38:04;3.57;;;0.90;;
71351;SDS011;59159;51.652;4.864;2023-04-26T12:40:30;3.05;;;0.90;;
71351;SDS011;59159;51.652;4.864;2023-04-26T12:42:56;3.58;;;1.08;;
71351;SDS011;59159;51.652;4.864;2023-04-26T12:45:23;3.80;;;0.90;;
71351;SDS011;59159;51.652;4.864;2023-04-26T12:47:50;2.67;;;0.80;;
71351;SDS011;59159;51.652;4.864;2023-04-26T12:50:17;3.75;;;0.90;;
71351;SDS011;59159;51.652;4.864;2023-04-26T12:52:43;3.60;;;0.90;;
71351;SDS011;59159;51.652;4.864;2023-04-26T12:55:10;4.20;;;1.20;;
71351;SDS011;59159;51.652;4.864;2023-04-26T12:57:36;4.78;;;1.27;;
71351;SDS011;59159;51.652;4.864;2023-04-26T13:00:03;5.35;;;1.20;;
71351;SDS011;59159;51.652;4.864;2023-04-26T13:02:30;6.43;;;1.43;;
71351;SDS011;59159;51.652;4.864;2023-04-26T13:04:56;3.75;;;1.30;;
71351;SDS011;59159;51.652;4.864;2023-04-26T13:07:22;5.20;;;1.50;;
71351;SDS011;59159;51.652;4.864;2023-04-26T13:09:48;4.47;;;1.30;;
71351;SDS011;59159;51.652;4.864;2023-04-26T13:12:14;7.88;;;2.08;;
71351;SDS011;59159;51.652;4.864;2023-04-26T13:14:40;4.78;;;1.20;;
71351;SDS011;59159;51.652;4.864;2023-04-26T13:17:06;5.80;;;1.77;;
71351;SDS011;59159;51.652;4.864;2023-04-26T13:19:33;4.15;;;1.10;;
71351;SDS011;59159;51.652;4.864;2023-04-26T13:22:03;5.68;;;1.50;;
71351;SDS011;59159;51.652;4.864;2023-04-26T13:24:32;4.80;;;1.20;;
71351;SDS011;59159;51.652;4.864;2023-04-26T13:26:58;5.73;;;1.23;;
71351;SDS011;59159;51.652;4.864;2023-04-26T13:29:24;5.70;;;1.50;;
71351;SDS011;59159;51.652;4.864;2023-04-26T13:31:50;4.38;;;1.10;;
71351;SDS011;59159;51.652;4.864;2023-04-26T13:34:16;6.00;;;1.20;;
71351;SDS011;59159;51.652;4.864;2023-04-26T13:36:42;5.65;;;1.48;;
71351;SDS011;59159;51.652;4.864;2023-04-26T13:39:08;6.43;;;1.38;;
71351;SDS011;59159;51.652;4.864;2023-04-26T13:41:34;3.77;;;1.20;;
71351;SDS011;59159;51.652;4.864;2023-04-26T13:44:01;5.32;;;1.27;;
71351;SDS011;59159;51.652;4.864;2023-04-26T13:46:28;6.13;;;1.50;;
71351;SDS011;59159;51.652;4.864;2023-04-26T13:48:54;5.43;;;1.20;;
71351;SDS011;59159;51.652;4.864;2023-04-26T13:51:20;4.83;;;1.10;;
71351;SDS011;59159;51.652;4.864;2023-04-26T13:53:46;4.43;;;1.30;;
71351;SDS011;59159;51.652;4.864;2023-04-26T13:56:13;5.38;;;1.45;;
71351;SDS011;59159;51.652;4.864;2023-04-26T13:58:40;4.67;;;1.53;;
71351;SDS011;59159;51.652;4.864;2023-04-26T14:01:07;4.45;;;1.40;;
71351;SDS011;59159;51.652;4.864;2023-04-26T14:03:33;7.07;;;1.55;;
71351;SDS011;59159;51.652;4.864;2023-04-26T14:05:59;6.03;;;1.50;;
71351;SDS011;59159;51.652;4.864;2023-04-26T14:08:27;4.55;;;1.50;;
71351;SDS011;59159;51.652;4.864;2023-04-26T14:10:53;6.03;;;1.85;;
71351;SDS011;59159;51.652;4.864;2023-04-26T14:13:20;9.75;;;2.72;;
71351;SDS011;59159;51.652;4.864;2023-04-26T14:15:46;23.60;;;5.83;;
71351;SDS011;59159;51.652;4.864;2023-04-26T14:18:12;9.65;;;3.88;;
71351;SDS011;59159;51.652;4.864;2023-04-26T14:20:38;13.30;;;3.92;;
71351;SDS011;59159;51.652;4.864;2023-04-26T14:23:04;15.37;;;4.83;;
71351;SDS011;59159;51.652;4.864;2023-04-26T14:25:30;12.48;;;4.28;;
71351;SDS011;59159;51.652;4.864;2023-04-26T14:27:56;11.93;;;3.78;;
71351;SDS011;59159;51.652;4.864;2023-04-26T14:30:22;10.30;;;3.27;;
71351;SDS011;59159;51.652;4.864;2023-04-26T14:32:48;7.85;;;2.97;;
71351;SDS011;59159;51.652;4.864;2023-04-26T14:35:14;14.13;;;3.70;;
71351;SDS011;59159;51.652;4.864;2023-04-26T14:37:40;7.95;;;3.00;;
71351;SDS011;59159;51.652;4.864;2023-04-26T14:40:06;8.47;;;2.77;;
71351;SDS011;59159;51.652;4.864;2023-04-26T14:42:33;11.25;;;3.10;;
71351;SDS011;59159;51.652;4.864;2023-04-26T14:44:59;9.23;;;2.75;;
71351;SDS011;59159;51.652;4.864;2023-04-26T14:47:25;7.23;;;2.50;;
71351;SDS011;59159;51.652;4.864;2023-04-26T14:49:51;8.20;;;2.63;;
71351;SDS011;59159;51.652;4.864;2023-04-26T14:52:17;8.90;;;2.40;;
71351;SDS011;59159;51.652;4.864;2023-04-26T14:54:47;13.57;;;3.60;;
71351;SDS011;59159;51.652;4.864;2023-04-26T14:57:15;7.53;;;2.17;;
71351;SDS011;59159;51.652;4.864;2023-04-26T14:59:41;8.63;;;2.40;;
71351;SDS011;59159;51.652;4.864;2023-04-26T15:02:07;7.95;;;2.65;;
71351;SDS011;59159;51.652;4.864;2023-04-26T15:04:33;7.73;;;2.30;;
71351;SDS011;59159;51.652;4.864;2023-04-26T15:07:01;6.47;;;1.95;;
71351;SDS011;59159;51.652;4.864;2023-04-26T15:09:27;6.78;;;1.90;;
71351;SDS011;59159;51.652;4.864;2023-04-26T15:11:53;5.90;;;1.97;;